createdAt,value
2023-06-29T00:00:17.949Z,100621.53
2023-06-29T00:02:20.814Z,100625.06
2023-06-29T00:04:27.004Z,100627.72
2023-06-29T00:06:32.715Z,100626.84
2023-06-29T00:08:36.743Z,100629.63
2023-06-29T00:10:40.680Z,100630.91
2023-06-29T00:12:43.564Z,100626.56
2023-06-29T00:14:46.532Z,100622.97
2023-06-29T00:16:51.796Z,100626.44
2023-06-29T00:18:56.348Z,100619.41
2023-06-29T00:20:59.070Z,100623.16
2023-06-29T00:23:01.961Z,100630.88
2023-06-29T00:25:05.449Z,100629.88
2023-06-29T00:27:08.436Z,100628.16
2023-06-29T00:29:11.332Z,100623.75
2023-06-29T00:31:14.403Z,100614.13
2023-06-29T00:33:18.728Z,100617.75
2023-06-29T00:35:21.652Z,100616.97
2023-06-29T00:37:24.658Z,100619.69
2023-06-29T00:39:27.669Z,100617.16
2023-06-29T00:41:30.526Z,100618.97
2023-06-29T00:43:33.699Z,100612.81
2023-06-29T00:45:36.633Z,100605.94
2023-06-29T00:47:41.602Z,100615.41
2023-06-29T00:49:46.003Z,100614.59
2023-06-29T00:51:52.031Z,100621.75
2023-06-29T00:53:55.338Z,100619.31
2023-06-29T00:55:59.901Z,100610.63
2023-06-29T00:58:03.331Z,100616.78
2023-06-29T01:00:11.669Z,100620.28
2023-06-29T01:02:16.617Z,100612.50
2023-06-29T01:04:26.140Z,100610.72
2023-06-29T01:06:33.884Z,100603.75
2023-06-29T01:08:41.238Z,100599.31
2023-06-29T01:10:48.113Z,100592.28
2023-06-29T01:12:52.412Z,100595.84
2023-06-29T01:14:56.540Z,100598.88
2023-06-29T01:17:00.597Z,100599.69
2023-06-29T01:19:06.787Z,100600.47
2023-06-29T01:21:09.857Z,100599.44
2023-06-29T01:23:19.619Z,100594.16
2023-06-29T01:25:24.095Z,100588.16
2023-06-29T01:27:27.005Z,100594.84
2023-06-29T01:29:33.023Z,100600.28
2023-06-29T01:31:35.888Z,100592.38
2023-06-29T01:33:39.019Z,100588.03
2023-06-29T01:35:42.273Z,100591.66
2023-06-29T01:37:52.319Z,100587.38
2023-06-29T01:40:00.252Z,100590.19
2023-06-29T01:42:06.103Z,100585.91
2023-06-29T01:44:12.158Z,100588.63
2023-06-29T01:46:16.778Z,100583.44
2023-06-29T01:48:21.244Z,100591.50
2023-06-29T01:50:24.924Z,100573.44
2023-06-29T01:52:28.268Z,100585.59
2023-06-29T01:54:31.139Z,100590.06
2023-06-29T01:56:34.150Z,100586.63
2023-06-29T01:58:40.535Z,100585.50
2023-06-29T02:00:43.427Z,100582.88
2023-06-29T02:02:46.540Z,100583.75
2023-06-29T02:04:49.508Z,100584.69
2023-06-29T02:06:52.464Z,100587.28
2023-06-29T02:08:55.567Z,100582.84
2023-06-29T02:10:58.420Z,100584.59
2023-06-29T02:13:01.482Z,100588.03
2023-06-29T02:15:06.243Z,100593.31
2023-06-29T02:17:09.148Z,100585.50
2023-06-29T02:19:12.129Z,100584.63
2023-06-29T02:21:15.872Z,100581.16
2023-06-29T02:23:19.160Z,100584.75
2023-06-29T02:25:26.099Z,100576.91
2023-06-29T02:27:32.034Z,100584.75
2023-06-29T02:29:35.212Z,100577.66
2023-06-29T02:31:39.438Z,100573.19
2023-06-29T02:33:43.184Z,100581.16
2023-06-29T02:35:46.582Z,100578.56
2023-06-29T02:37:49.566Z,100573.34
2023-06-29T02:39:55.443Z,100574.19
2023-06-29T02:41:58.850Z,100575.06
2023-06-29T02:44:02.286Z,100573.19
2023-06-29T02:46:05.257Z,100567.00
2023-06-29T02:48:12.418Z,100567.00
2023-06-29T02:50:15.370Z,100571.38
2023-06-29T02:52:23.214Z,100567.31
2023-06-29T02:54:26.862Z,100572.91
2023-06-29T02:56:29.759Z,100560.75
2023-06-29T02:58:32.639Z,100564.16
2023-06-29T03:00:36.324Z,100555.34
2023-06-29T03:02:39.373Z,100557.09
2023-06-29T03:04:45.679Z,100552.72
2023-06-29T03:06:48.762Z,100561.63
2023-06-29T03:08:51.688Z,100552.94
2023-06-29T03:10:54.569Z,100553.75
2023-06-29T03:12:57.555Z,100548.47
2023-06-29T03:15:00.484Z,100544.94
2023-06-29T03:17:03.522Z,100550.28
2023-06-29T03:19:06.562Z,100545.31
2023-06-29T03:21:17.795Z,100550.53
2023-06-29T03:23:21.421Z,100557.56
2023-06-29T03:25:24.352Z,100552.25
2023-06-29T03:27:27.262Z,100542.72
2023-06-29T03:29:30.154Z,100547.06
2023-06-29T03:31:33.291Z,100541.84
2023-06-29T03:33:36.205Z,100553.13
2023-06-29T03:35:39.129Z,100550.38
2023-06-29T03:37:43.366Z,100559.22
2023-06-29T03:39:46.397Z,100552.25
2023-06-29T03:41:49.311Z,100557.53
2023-06-29T03:43:52.153Z,100554.88
2023-06-29T03:45:55.063Z,100551.34
2023-06-29T03:47:58.091Z,100569.91
2023-06-29T03:50:01.066Z,100565.50
2023-06-29T03:52:03.993Z,100557.19
2023-06-29T03:54:08.207Z,100548.50
2023-06-29T03:56:11.458Z,100546.81
2023-06-29T03:58:14.342Z,100541.91
2023-06-29T04:00:17.623Z,100544.22
2023-06-29T04:02:20.481Z,100549.31
2023-06-29T04:04:23.385Z,100542.91
2023-06-29T04:06:26.224Z,100538.41
2023-06-29T04:08:29.164Z,100532.31
2023-06-29T04:10:33.430Z,100534.94
2023-06-29T04:12:36.336Z,100533.22
2023-06-29T04:14:39.164Z,100541.94
2023-06-29T04:16:42.054Z,100539.03
2023-06-29T04:18:44.984Z,100536.22
2023-06-29T04:20:47.873Z,100531.72
2023-06-29T04:22:50.817Z,100537.00
2023-06-29T04:24:53.634Z,100536.88
2023-06-29T04:26:57.885Z,100534.16
2023-06-29T04:29:07.025Z,100530.84
2023-06-29T04:31:09.908Z,100528.78
2023-06-29T04:33:14.275Z,100531.00
2023-06-29T04:35:17.264Z,100527.88
2023-06-29T04:37:21.637Z,100538.63
2023-06-29T04:39:24.483Z,100532.69
2023-06-29T04:41:32.851Z,100536.34
2023-06-29T04:43:37.766Z,100529.31
2023-06-29T04:45:42.073Z,100529.28
2023-06-29T04:47:46.002Z,100542.44
2023-06-29T04:49:53.787Z,100540.59
2023-06-29T04:52:00.808Z,100539.63
2023-06-29T04:54:04.608Z,100537.84
2023-06-29T04:56:07.469Z,100536.03
2023-06-29T04:58:10.310Z,100534.16
2023-06-29T05:00:16.055Z,100523.34
2023-06-29T05:02:18.889Z,100529.31
2023-06-29T05:04:21.871Z,100525.63
2023-06-29T05:06:25.866Z,100526.31
2023-06-29T05:08:32.746Z,100528.69
2023-06-29T05:10:35.593Z,100526.75
2023-06-29T05:12:38.404Z,100530.84
2023-06-29T05:14:41.214Z,100527.03
2023-06-29T05:16:45.409Z,100521.56
2023-06-29T05:18:48.549Z,100520.50
2023-06-29T05:20:51.387Z,100520.28
2023-06-29T05:22:54.216Z,100518.31
2023-06-29T05:24:57.023Z,100521.00
2023-06-29T05:26:59.849Z,100521.00
2023-06-29T05:29:05.578Z,100523.53
2023-06-29T05:31:09.198Z,100518.19
2023-06-29T05:33:13.713Z,100517.38
2023-06-29T05:35:16.582Z,100518.38
2023-06-29T05:37:19.440Z,100521.66
2023-06-29T05:39:22.273Z,100522.28
2023-06-29T05:41:25.053Z,100526.50
2023-06-29T05:43:27.971Z,100527.19
2023-06-29T05:45:30.798Z,100526.22
2023-06-29T05:47:33.899Z,100523.22
2023-06-29T05:49:38.099Z,100516.94
2023-06-29T05:51:41.580Z,100516.94
2023-06-29T05:53:44.437Z,100512.34
2023-06-29T05:55:48.245Z,100511.19
2023-06-29T05:57:51.119Z,100512.72
2023-06-29T05:59:54.011Z,100510.13
2023-06-29T06:01:56.836Z,100508.38
2023-06-29T06:03:59.834Z,100502.06
2023-06-29T06:06:04.186Z,100509.66
2023-06-29T06:08:07.054Z,100501.56
2023-06-29T06:10:10.551Z,100504.81
2023-06-29T06:12:13.428Z,100510.75
2023-06-29T06:14:16.227Z,100510.44
2023-06-29T06:16:19.165Z,100511.06
2023-06-29T06:18:21.988Z,100498.41
2023-06-29T06:20:24.888Z,100497.16
2023-06-29T06:22:29.040Z,100504.81
2023-06-29T06:24:31.955Z,100503.63
2023-06-29T06:26:34.829Z,100501.63
2023-06-29T06:28:37.693Z,100505.75
2023-06-29T06:30:40.559Z,100501.03
2023-06-29T06:32:43.532Z,100497.44
2023-06-29T06:34:47.098Z,100492.84
2023-06-29T06:36:49.974Z,100500.38
2023-06-29T06:38:54.286Z,100496.44
2023-06-29T06:40:57.120Z,100500.38
2023-06-29T06:43:00.083Z,100480.75
2023-06-29T06:45:06.569Z,100487.16
2023-06-29T06:47:09.259Z,100491.50
2023-06-29T06:49:12.112Z,100486.00
2023-06-29T06:51:14.967Z,100492.19
2023-06-29T06:53:17.746Z,100493.44
2023-06-29T06:55:21.936Z,100492.28
2023-06-29T06:57:25.019Z,100495.50
2023-06-29T06:59:27.872Z,100499.56
2023-06-29T07:01:30.822Z,100496.06
2023-06-29T07:03:34.119Z,100493.03
2023-06-29T07:05:37.443Z,100494.31
2023-06-29T07:07:40.328Z,100485.06
2023-06-29T07:09:43.207Z,100489.97
2023-06-29T07:11:47.365Z,100486.78
2023-06-29T07:13:50.260Z,100487.28
2023-06-29T07:15:53.180Z,100488.81
2023-06-29T07:17:56.086Z,100481.31
2023-06-29T07:24:11.358Z,100476.34
2023-06-29T07:26:14.504Z,100473.53
2023-06-29T07:28:18.794Z,100475.03
2023-06-29T07:30:21.495Z,100475.66
2023-06-29T07:32:24.347Z,100470.47
2023-06-29T07:34:27.244Z,100473.44
2023-06-29T07:36:30.524Z,100465.31
2023-06-29T07:38:33.339Z,100472.66
2023-06-29T07:40:36.297Z,100477.41
2023-06-29T07:42:40.762Z,100470.53
2023-06-29T07:44:44.969Z,100475.25
2023-06-29T07:46:47.770Z,100470.84
2023-06-29T07:48:51.675Z,100470.06
2023-06-29T07:50:54.595Z,100472.72
2023-06-29T07:52:57.436Z,100468.03
2023-06-29T07:55:00.265Z,100468.59
2023-06-29T07:59:12.530Z,100471.25
2023-06-29T08:01:19.163Z,100470.47
2023-06-29T08:03:22.065Z,100463.28
2023-06-29T08:07:30.725Z,100463.78
2023-06-29T08:09:33.636Z,100466.03
2023-06-29T08:11:36.525Z,100459.66
2023-06-29T08:13:39.336Z,100455.31
2023-06-29T08:15:42.227Z,100465.03
2023-06-29T08:17:46.446Z,100461.94
2023-06-29T08:19:49.324Z,100460.75
2023-06-29T08:21:56.428Z,100461.56
2023-06-29T08:23:59.338Z,100460.97
2023-06-29T08:26:02.313Z,100456.97
2023-06-29T08:28:05.542Z,100459.28
2023-06-29T08:30:09.470Z,100455.50
2023-06-29T08:32:12.511Z,100454.44
2023-06-29T08:34:16.880Z,100454.38
2023-06-29T08:36:20.080Z,100452.78
2023-06-29T08:38:22.919Z,100456.06
2023-06-29T08:40:27.965Z,100459.84
2023-06-29T08:42:30.828Z,100445.75
2023-06-29T08:44:34.623Z,100453.22
2023-06-29T08:46:39.880Z,100454.69
2023-06-29T08:48:45.843Z,100452.78
2023-06-29T08:50:55.419Z,100454.31
2023-06-29T08:52:58.924Z,100445.63
2023-06-29T08:55:03.012Z,100443.69
2023-06-29T08:57:07.173Z,100442.00
2023-06-29T08:59:10.391Z,100440.56
2023-06-29T09:01:13.800Z,100445.38
2023-06-29T09:03:18.482Z,100436.81
2023-06-29T09:05:22.734Z,100439.63
2023-06-29T09:07:26.867Z,100441.03
2023-06-29T09:09:30.043Z,100446.03
2023-06-29T09:11:36.325Z,100442.34
2023-06-29T09:13:39.193Z,100440.28
2023-06-29T09:15:42.472Z,100445.53
2023-06-29T09:17:47.270Z,100430.22
2023-06-29T09:19:55.228Z,100427.13
2023-06-29T09:21:59.423Z,100422.28
2023-06-29T09:24:05.203Z,100425.94
2023-06-29T09:26:09.381Z,100426.19
2023-06-29T09:28:13.177Z,100433.88
2023-06-29T09:30:19.388Z,100430.72
2023-06-29T09:32:22.243Z,100427.44
2023-06-29T09:34:27.488Z,100432.88
2023-06-29T09:36:30.656Z,100430.47
2023-06-29T09:38:33.622Z,100427.88
2023-06-29T09:40:50.175Z,100431.69
2023-06-29T09:42:53.069Z,100433.66
2023-06-29T09:44:56.242Z,100421.13
2023-06-29T09:49:12.629Z,100426.91
2023-06-29T09:51:21.661Z,100432.09
2023-06-29T09:53:32.593Z,100429.56
2023-06-29T09:55:38.796Z,100429.56
2023-06-29T09:57:44.336Z,100423.31
2023-06-29T09:59:47.233Z,100419.69
2023-06-29T10:01:50.132Z,100418.00
2023-06-29T10:03:53.104Z,100420.00
2023-06-29T10:05:59.527Z,100427.06
2023-06-29T10:08:08.984Z,100422.09
2023-06-29T10:10:16.971Z,100421.78
2023-06-29T10:12:21.064Z,100418.72
2023-06-29T10:14:25.399Z,100419.91
2023-06-29T10:16:30.973Z,100422.81
2023-06-29T10:18:39.684Z,100414.47
2023-06-29T10:20:46.140Z,100405.84
2023-06-29T10:22:50.515Z,100410.00
2023-06-29T10:24:55.221Z,100404.19
2023-06-29T10:27:00.007Z,100410.75
2023-06-29T10:29:03.013Z,100405.50
2023-06-29T10:31:07.215Z,100399.84
2023-06-29T10:33:11.655Z,100404.25
2023-06-29T10:35:15.343Z,100400.72
2023-06-29T10:37:32.127Z,100403.91
2023-06-29T10:39:41.915Z,100396.75
2023-06-29T10:41:44.738Z,100394.03
2023-06-29T10:43:56.120Z,100394.25
2023-06-29T10:46:01.244Z,100399.44
2023-06-29T10:48:25.551Z,100389.81
2023-06-29T10:50:38.639Z,100399.25
2023-06-29T10:52:42.508Z,100391.53
2023-06-29T10:54:45.393Z,100391.28
2023-06-29T10:56:59.012Z,100388.78
2023-06-29T10:59:02.262Z,100392.44
2023-06-29T11:01:05.341Z,100390.97
2023-06-29T11:03:10.404Z,100398.31
2023-06-29T11:05:15.022Z,100390.56
2023-06-29T11:07:18.562Z,100388.03
2023-06-29T11:09:21.588Z,100387.50
2023-06-29T11:11:24.707Z,100392.84
2023-06-29T11:13:29.262Z,100401.91
2023-06-29T11:15:34.338Z,100394.78
2023-06-29T11:17:37.344Z,100389.44
2023-06-29T11:19:46.628Z,100385.78
2023-06-29T11:21:49.460Z,100382.00
2023-06-29T11:23:52.554Z,100382.72
2023-06-29T11:25:55.405Z,100386.81
2023-06-29T11:27:59.580Z,100385.09
2023-06-29T11:30:05.892Z,100383.53
2023-06-29T11:32:11.541Z,100386.22
2023-06-29T11:34:15.202Z,100379.06
2023-06-29T11:36:29.883Z,100372.63
2023-06-29T11:38:32.798Z,100376.16
2023-06-29T11:40:35.680Z,100380.47
2023-06-29T11:42:38.749Z,100375.91
2023-06-29T11:44:41.705Z,100378.91
2023-06-29T11:46:46.667Z,100364.06
2023-06-29T11:48:56.827Z,100365.16
2023-06-29T11:51:01.658Z,100368.06
2023-06-29T11:53:07.913Z,100368.38
2023-06-29T11:55:15.076Z,100376.69
2023-06-29T11:57:18.861Z,100368.97
2023-06-29T11:59:22.582Z,100369.88
2023-06-29T12:03:29.525Z,100370.69
2023-06-29T12:05:32.421Z,100370.69
2023-06-29T12:07:39.667Z,100369.47
2023-06-29T12:09:49.278Z,100364.78
2023-06-29T12:11:58.221Z,100362.72
2023-06-29T12:14:03.386Z,100352.72
2023-06-29T12:18:17.501Z,100361.72
2023-06-29T12:20:22.073Z,100349.25
2023-06-29T12:22:25.864Z,100349.81
2023-06-29T12:24:28.708Z,100353.56
2023-06-29T12:26:33.041Z,100354.25
2023-06-29T12:28:35.965Z,100358.41
2023-06-29T12:30:38.915Z,100346.50
2023-06-29T12:32:41.706Z,100344.44
2023-06-29T12:34:44.548Z,100342.28
2023-06-29T12:36:47.451Z,100342.13
2023-06-29T12:38:50.864Z,100341.56
2023-06-29T12:40:53.749Z,100341.50
2023-06-29T12:42:58.064Z,100337.56
2023-06-29T12:45:01.038Z,100335.53
2023-06-29T12:47:04.143Z,100334.59
2023-06-29T12:49:06.977Z,100341.06
2023-06-29T12:51:09.812Z,100330.03
2023-06-29T12:53:12.647Z,100331.13
2023-06-29T12:55:16.232Z,100330.69
2023-06-29T12:57:20.020Z,100327.56
2023-06-29T12:59:24.442Z,100330.66
2023-06-29T13:01:27.350Z,100328.81
2023-06-29T13:03:30.452Z,100325.50
2023-06-29T13:05:34.644Z,100329.28
2023-06-29T13:07:37.924Z,100328.28
2023-06-29T13:09:40.781Z,100327.50
2023-06-29T13:11:45.434Z,100322.06
2023-06-29T13:13:48.297Z,100317.44
2023-06-29T13:15:52.473Z,100326.13
2023-06-29T13:17:55.153Z,100320.94
2023-06-29T13:19:58.055Z,100320.66
2023-06-29T13:22:00.894Z,100324.75
2023-06-29T13:24:04.115Z,100313.97
2023-06-29T13:26:06.908Z,100311.50
2023-06-29T13:28:09.913Z,100318.06
2023-06-29T13:30:15.626Z,100305.06
2023-06-29T13:32:19.853Z,100302.78
2023-06-29T13:34:22.681Z,100307.22
2023-06-29T13:36:25.516Z,100308.09
2023-06-29T13:38:28.888Z,100308.69
2023-06-29T13:40:31.847Z,100305.16
2023-06-29T13:42:37.773Z,100304.47
2023-06-29T13:44:40.603Z,100308.34
2023-06-29T13:46:43.938Z,100294.16
2023-06-29T13:48:48.187Z,100294.91
2023-06-29T13:50:52.730Z,100294.56
2023-06-29T13:52:57.442Z,100297.25
2023-06-29T13:55:00.303Z,100292.47
2023-06-29T13:57:03.322Z,100290.69
2023-06-29T13:59:09.202Z,100292.28
2023-06-29T14:01:12.097Z,100284.88
2023-06-29T14:03:14.960Z,100288.31
2023-06-29T14:05:19.831Z,100282.00
2023-06-29T14:07:23.950Z,100276.56
2023-06-29T14:09:28.555Z,100279.06
2023-06-29T14:11:31.517Z,100271.94
2023-06-29T14:13:34.392Z,100276.91
2023-06-29T14:15:37.976Z,100281.09
2023-06-29T14:17:40.987Z,100271.88
2023-06-29T14:19:43.994Z,100271.28
2023-06-29T14:21:48.181Z,100270.59
2023-06-29T14:23:50.825Z,100264.69
2023-06-29T14:25:53.767Z,100261.69
2023-06-29T14:27:56.664Z,100260.44
2023-06-29T14:29:59.566Z,100262.06
2023-06-29T14:32:02.439Z,100261.22
2023-06-29T14:34:05.391Z,100257.66
2023-06-29T14:36:08.348Z,100258.16
2023-06-29T14:38:14.277Z,100250.16
2023-06-29T14:40:17.747Z,100249.31
2023-06-29T14:42:20.583Z,100242.34
2023-06-29T14:44:24.320Z,100248.53
2023-06-29T14:46:27.213Z,100250.25
2023-06-29T14:48:30.138Z,100240.50
2023-06-29T14:50:32.996Z,100247.59
2023-06-29T14:52:35.819Z,100242.34
2023-06-29T14:54:40.051Z,100231.38
2023-06-29T14:56:42.904Z,100224.09
2023-06-29T14:58:45.797Z,100226.13
2023-06-29T15:00:48.684Z,100217.56
2023-06-29T15:02:51.562Z,100220.25
2023-06-29T15:04:54.471Z,100217.66
2023-06-29T15:06:57.349Z,100209.25
2023-06-29T15:09:00.503Z,100199.59
2023-06-29T15:11:04.726Z,100201.13
2023-06-29T15:13:07.591Z,100197.69
2023-06-29T15:15:13.215Z,100198.06
2023-06-29T15:17:18.056Z,100201.50
2023-06-29T15:19:20.859Z,100199.50
2023-06-29T15:21:23.640Z,100194.47
2023-06-29T15:23:26.525Z,100204.72
2023-06-29T15:25:29.452Z,100195.25
2023-06-29T15:27:34.725Z,100188.09
2023-06-29T15:29:37.577Z,100193.72
2023-06-29T15:31:40.496Z,100198.78
2023-06-29T15:33:43.388Z,100198.66
2023-06-29T15:35:46.508Z,100195.41
2023-06-29T15:37:49.669Z,100201.41
2023-06-29T15:39:53.735Z,100198.56
2023-06-29T15:41:56.596Z,100196.69
2023-06-29T15:44:02.597Z,100197.16
2023-06-29T15:46:05.473Z,100189.28
2023-06-29T15:48:08.443Z,100198.97
2023-06-29T15:50:11.624Z,100183.69
2023-06-29T15:52:14.482Z,100182.66
2023-06-29T15:54:18.627Z,100186.44
2023-06-29T15:56:21.394Z,100179.94
2023-06-29T15:58:24.173Z,100175.50
2023-06-29T16:00:28.295Z,100175.91
2023-06-29T16:02:31.017Z,100177.06
2023-06-29T16:04:33.876Z,100171.41
2023-06-29T16:06:36.963Z,100175.69
2023-06-29T16:08:39.842Z,100163.84
2023-06-29T16:10:42.987Z,100169.94
2023-06-29T16:12:46.115Z,100160.75
2023-06-29T16:14:49.119Z,100161.50
2023-06-29T16:16:53.330Z,100165.25
2023-06-29T16:18:57.299Z,100155.81
2023-06-29T16:21:00.176Z,100163.16
2023-06-29T16:23:03.017Z,100159.66
2023-06-29T16:25:07.416Z,100159.19
2023-06-29T16:27:10.764Z,100152.72
2023-06-29T16:29:13.911Z,100156.41
2023-06-29T16:31:16.994Z,100154.91
2023-06-29T16:33:21.433Z,100152.66
2023-06-29T16:35:24.095Z,100147.13
2023-06-29T16:37:46.178Z,100152.47
2023-06-29T16:39:49.076Z,100148.59
2023-06-29T16:41:52.930Z,100147.91
2023-06-29T16:43:57.033Z,100150.34
2023-06-29T16:46:00.136Z,100146.34
2023-06-29T16:48:02.974Z,100150.56
2023-06-29T16:50:08.013Z,100147.34
2023-06-29T16:52:10.938Z,100150.97
2023-06-29T16:54:13.844Z,100148.88
2023-06-29T16:56:16.665Z,100143.53
2023-06-29T16:58:19.574Z,100142.38
2023-06-29T17:00:23.076Z,100142.75
2023-06-29T17:02:26.004Z,100138.94
2023-06-29T17:04:30.119Z,100142.38
2023-06-29T17:06:34.382Z,100143.41
2023-06-29T17:08:38.510Z,100135.50
2023-06-29T17:10:41.329Z,100137.78
2023-06-29T17:12:44.215Z,100140.47
2023-06-29T17:14:47.018Z,100140.56
2023-06-29T17:16:49.915Z,100145.06
2023-06-29T17:18:53.715Z,100143.72
2023-06-29T17:20:56.955Z,100146.38
2023-06-29T17:23:01.232Z,100147.44
2023-06-29T17:25:04.184Z,100147.91
2023-06-29T17:27:08.368Z,100145.50
2023-06-29T17:29:11.027Z,100150.38
2023-06-29T17:31:13.925Z,100148.72
2023-06-29T17:33:16.855Z,100148.72
2023-06-29T17:35:19.693Z,100148.72
2023-06-29T17:37:22.536Z,100155.00
2023-06-29T17:39:26.727Z,100147.28
2023-06-29T17:41:29.934Z,100166.75
2023-06-29T17:43:32.762Z,100155.94
2023-06-29T17:45:35.587Z,100155.25
2023-06-29T17:47:38.462Z,100161.47
2023-06-29T17:49:41.402Z,100158.88
2023-06-29T17:51:44.305Z,100151.63
2023-06-29T17:53:47.970Z,100158.19
2023-06-29T17:56:35.640Z,100160.75
2023-06-29T17:58:36.909Z,100153.22
2023-06-29T18:00:39.745Z,100154.06
2023-06-29T18:02:42.924Z,100147.38
2023-06-29T18:04:45.794Z,100148.13
2023-06-29T18:06:48.632Z,100140.22
2023-06-29T18:08:51.451Z,100146.75
2023-06-29T18:10:54.274Z,100145.22
2023-06-29T18:12:58.501Z,100145.38
2023-06-29T18:15:01.264Z,100146.16
2023-06-29T18:17:04.593Z,100150.06
2023-06-29T18:19:07.367Z,100152.72
2023-06-29T18:21:10.138Z,100153.03
2023-06-29T18:23:13.239Z,100158.28
2023-06-29T18:25:16.227Z,100152.28
2023-06-29T18:27:19.065Z,100158.56
2023-06-29T18:29:23.190Z,100160.28
2023-06-29T18:31:25.848Z,100157.25
2023-06-29T18:33:29.710Z,100167.94
2023-06-29T18:35:32.894Z,100172.22
2023-06-29T18:37:36.966Z,100160.63
2023-06-29T18:39:39.811Z,100167.75
2023-06-29T18:41:46.204Z,100167.06
2023-06-29T18:43:49.119Z,100165.25
2023-06-29T18:45:53.325Z,100166.16
2023-06-29T18:47:56.145Z,100163.78
2023-06-29T18:49:59.021Z,100164.75
2023-06-29T18:52:01.859Z,100161.13
2023-06-29T18:54:04.820Z,100162.09
2023-06-29T18:56:07.606Z,100165.69
2023-06-29T18:58:10.491Z,100162.19
2023-06-29T19:00:14.282Z,100163.22
2023-06-29T19:02:18.598Z,100165.09
2023-06-29T19:04:21.285Z,100165.88
2023-06-29T19:06:24.265Z,100159.69
2023-06-29T19:08:27.290Z,100161.38
2023-06-29T19:10:30.722Z,100161.38
2023-06-29T19:12:33.564Z,100160.72
2023-06-29T19:14:36.441Z,100166.25
2023-06-29T19:16:39.921Z,100170.97
2023-06-29T19:18:44.274Z,100167.44
2023-06-29T19:20:47.618Z,100172.66
2023-06-29T19:22:50.662Z,100171.00
2023-06-29T19:24:53.427Z,100171.00
2023-06-29T19:26:56.316Z,100165.09
2023-06-29T19:28:59.235Z,100173.09
2023-06-29T19:31:02.122Z,100167.84
2023-06-29T19:33:05.736Z,100175.03
2023-06-29T19:35:10.544Z,100177.00
2023-06-29T19:37:13.413Z,100184.28
2023-06-29T19:39:16.271Z,100180.94
2023-06-29T19:41:19.270Z,100180.84
2023-06-29T19:43:22.134Z,100176.53
2023-06-29T19:45:25.007Z,100182.88
2023-06-29T19:47:27.884Z,100179.53
2023-06-29T19:49:30.796Z,100181.47
2023-06-29T19:51:37.601Z,100179.06
2023-06-29T19:53:40.519Z,100177.50
2023-06-29T19:55:43.595Z,100175.94
2023-06-29T19:57:46.754Z,100182.50
2023-06-29T19:59:49.711Z,100184.53
2023-06-29T20:01:52.748Z,100182.19
2023-06-29T20:03:55.670Z,100182.50
2023-06-29T20:05:58.594Z,100172.00
2023-06-29T20:08:02.810Z,100183.91
2023-06-29T20:10:06.346Z,100188.56
2023-06-29T20:12:09.598Z,100182.66
2023-06-29T20:14:12.449Z,100190.75
2023-06-29T20:16:15.400Z,100182.22
2023-06-29T20:18:18.281Z,100184.00
2023-06-29T20:20:21.273Z,100181.56
2023-06-29T20:22:24.118Z,100184.47
2023-06-29T20:24:28.297Z,100192.59
2023-06-29T20:26:31.706Z,100184.00
2023-06-29T20:28:34.660Z,100188.69
2023-06-29T20:30:37.719Z,100187.97
2023-06-29T20:32:41.381Z,100185.63
2023-06-29T20:34:44.254Z,100180.47
2023-06-29T20:36:47.108Z,100182.47
2023-06-29T20:38:50.020Z,100189.78
2023-06-29T20:40:54.296Z,100187.22
2023-06-29T20:42:59.763Z,100184.41
2023-06-29T20:45:04.028Z,100194.19
2023-06-29T20:47:07.368Z,100187.84
2023-06-29T20:49:10.388Z,100190.66
2023-06-29T20:51:18.003Z,100181.84
2023-06-29T20:53:21.608Z,100186.38
2023-06-29T20:55:24.465Z,100186.44
2023-06-29T20:57:28.718Z,100178.59
2023-06-29T20:59:33.743Z,100175.72
2023-06-29T21:01:37.927Z,100173.09
2023-06-29T21:03:44.918Z,100169.47
2023-06-29T21:05:48.489Z,100174.63
2023-06-29T21:07:52.274Z,100176.44
2023-06-29T21:09:55.198Z,100180.09
2023-06-29T21:11:58.285Z,100182.84
2023-06-29T21:14:02.751Z,100178.53
2023-06-29T21:16:06.132Z,100179.56
2023-06-29T21:18:09.611Z,100179.66
2023-06-29T21:20:13.697Z,100179.03
2023-06-29T21:22:18.237Z,100182.69
2023-06-29T21:24:21.634Z,100174.94
2023-06-29T21:26:25.298Z,100172.41
2023-06-29T21:28:28.873Z,100167.19
2023-06-29T21:30:36.857Z,100164.66
2023-06-29T21:32:39.949Z,100167.53
2023-06-29T21:34:43.138Z,100171.94
2023-06-29T21:36:46.394Z,100164.97
2023-06-29T21:38:51.222Z,100175.66
2023-06-29T21:40:54.235Z,100164.28
2023-06-29T21:42:57.079Z,100165.25
2023-06-29T21:44:59.982Z,100162.69
2023-06-29T21:47:05.128Z,100165.31
2023-06-29T21:49:08.886Z,100165.41
2023-06-29T21:51:11.753Z,100163.81
2023-06-29T21:53:15.619Z,100159.44
2023-06-29T21:55:19.072Z,100168.41
2023-06-29T21:57:27.728Z,100167.66
2023-06-29T21:59:33.523Z,100170.31
2023-06-29T22:01:36.448Z,100169.59
2023-06-29T22:03:40.764Z,100167.84
2023-06-29T22:05:45.727Z,100172.84
2023-06-29T22:07:49.151Z,100178.22
2023-06-29T22:09:52.012Z,100164.81
2023-06-29T22:11:54.827Z,100162.25
2023-06-29T22:13:57.681Z,100168.50
2023-06-29T22:16:00.633Z,100172.13
2023-06-29T22:18:04.651Z,100166.81
2023-06-29T22:20:13.899Z,100161.66
2023-06-29T22:22:17.117Z,100160.00
2023-06-29T22:24:19.884Z,100157.41
2023-06-29T22:26:24.038Z,100152.25
2023-06-29T22:28:26.862Z,100154.13
2023-06-29T22:30:29.685Z,100155.16
2023-06-29T22:32:32.799Z,100149.09
2023-06-29T22:34:35.655Z,100145.66
2023-06-29T22:36:39.847Z,100149.09
2023-06-29T22:38:42.880Z,100142.19
2023-06-29T22:40:45.992Z,100147.50
2023-06-29T22:42:49.150Z,100137.94
2023-06-29T22:44:52.020Z,100135.28
2023-06-29T22:46:54.983Z,100130.94
2023-06-29T22:48:57.791Z,100136.31
2023-06-29T22:51:01.055Z,100135.50
2023-06-29T22:53:05.364Z,100144.38
2023-06-29T22:55:08.750Z,100139.19
2023-06-29T22:57:11.525Z,100134.97
2023-06-29T22:59:14.721Z,100141.97
2023-06-29T23:01:17.549Z,100135.88
2023-06-29T23:03:20.544Z,100128.00
2023-06-29T23:05:23.555Z,100135.19
2023-06-29T23:07:26.417Z,100129.03
2023-06-29T23:09:30.886Z,100127.31
2023-06-29T23:11:33.833Z,100137.06
2023-06-29T23:13:41.388Z,100131.81
2023-06-29T23:15:45.413Z,100124.84
2023-06-29T23:17:48.878Z,100119.75
2023-06-29T23:19:51.762Z,100117.94
2023-06-29T23:21:54.624Z,100113.53
2023-06-29T23:23:58.206Z,100120.53
2023-06-29T23:26:07.433Z,100111.81
2023-06-29T23:28:12.223Z,100120.00
2023-06-29T23:30:16.716Z,100113.88
2023-06-29T23:32:19.618Z,100118.41
2023-06-29T23:34:23.172Z,100121.97
2023-06-29T23:36:26.071Z,100123.75
2023-06-29T23:38:28.853Z,100123.75
2023-06-29T23:40:32.717Z,100125.56
2023-06-29T23:42:37.014Z,100127.25
2023-06-29T23:44:41.602Z,100117.66
2023-06-29T23:46:45.880Z,100119.47
2023-06-29T23:48:48.935Z,100116.94